Aviation Digital Data Service (ADDS)

Output produced by METARs form (0107 UTC 16 October 2018)
found at http://www.aviationweather.gov/metar/data/
 
KILE 160056Z AUTO 01013G23KT 4SM -RA BR OVC010 06/05 A3020 RMK AO2 RAE05B35 SLP246 P0017 T00610050
KILE 152356Z AUTO 36015G19KT 10SM -RA OVC010 06/05 A3019 RMK AO2 RAB03 PRESFR SLPNO P0001 60117 T00610050 10061 20050 56021
KILE 152314Z AUTO 35011G20KT 10SM -RA OVC010 06/05 A3021 RMK AO2 RAB03 P0000
KILE 152256Z AUTO 35016G19KT 10SM BKN008 OVC046 06/05 A3020 RMK AO2 RAE53 SLPNO P0007 T00610050
KILE 152156Z AUTO 03015G19KT 4SM -RA BR BKN008 OVC035 06/05 A3018 RMK AO2 CIG 006V012 SLPNO P0033 T00560050
KILE 152145Z AUTO 36013G18KT 3SM -RA BR OVC008 06/05 A3019 RMK AO2 CIG 006V012 P0029
KILE 152128Z AUTO 35012G24KT 2 1/2SM -RA BR OVC010 06/05 A3021 RMK AO2 VIS 2V5 P0019
KILE 152056Z AUTO 33009KT 10SM RA OVC010 06/05 A3025 RMK AO2 CIG 007V014 SLP268 P0034 60076 T00610050 51015
KILE 152050Z AUTO 34010KT 10SM -RA BKN010 OVC013 06/05 A3023 RMK AO2 CIG 007V011 P0033
KILE 152023Z AUTO 34008G17KT 6SM -RA BR BKN008 BKN013 OVC019 06/05 A3024 RMK AO2 P0032
KILE 152018Z AUTO 35008KT 2 1/2SM -RA BR BKN010 OVC017 06/05 A3024 RMK AO2 CIG 008V012 P0032
KILE 152008Z AUTO 35011G17KT 1SM RA BR OVC010 06/05 A3023 RMK AO2 VIS 1/2V5 CIG 007V012 P0026
KILE 152004Z AUTO 35014G17KT 2 1/2SM RA BR OVC010 06/05 A3023 RMK AO2 VIS 3/4V5 CIG 007V012 P0010
KILE 151956Z AUTO 35008KT 10SM -RA BKN008 OVC014 06/05 A3023 RMK AO2 CIG 007V011 SLPNO P0012 T00560050
KILE 151932Z AUTO 35013G19KT 10SM RA OVC008 06/05 A3022 RMK AO2 P0008
KILE 151907Z AUTO 35012G20KT 3SM -RA BR BKN010 OVC016 06/05 A3021 RMK AO2 CIG 007V012 P0005
KILE 151856Z AUTO 34014KT 1 3/4SM -RA BR BKN010 OVC016 06/05 A3021 RMK AO2 PK WND 35030/1816 CIG 006V012 SLPNO P0030 T00560050
KILE 151854Z AUTO 35013G20KT 1 3/4SM -RA BR BKN010 OVC016 06/05 A3021 RMK AO2 PK WND 35030/1816 VIS 1V5 CIG 006V013 P0028
KILE 151850Z AUTO 36015G20KT 2 1/2SM -RA BR BKN010 OVC017 06/04 A3021 RMK AO2 PK WND 35030/1816 CIG 006V013 P0025
KILE 151837Z AUTO 35016G24KT 6SM RA BR BKN008 OVC013 06/04 A3021 RMK AO2 PK WND 35030/1816 CIG 006V010 P0015
KILE 151756Z AUTO 35018G26KT 7SM -RA BKN011 BKN017 OVC022 05/04 A3021 RMK AO2 PK WND 35028/1735 SLPNO P0011 60087 T00500044 10061 20039 58001
KILE 151731Z AUTO 35016G26KT 10SM RA SCT010 BKN018 OVC022 06/04 A3021 RMK AO2 PK WND 36026/1723 P0003
KILE 151656Z AUTO 34013G19KT 6SM -RA BR OVC008 06/04 A3025 RMK AO2 CIG 007V012 SLP268 P0015 T00560044
KILE 151556Z AUTO 35010KT 4SM -RA BR BKN008 OVC015 05/04 A3024 RMK AO2 CIG 007V012 SLP261 P0033 T00500044 $
KILE 151544Z AUTO 36013KT 4SM -RA BR BKN008 OVC050 05/04 A3023 RMK AO2 CIG 007V010 P0028
KILE 151517Z AUTO 36016G23KT 2SM -RA BR OVC006 05/04 A3023 RMK AO2 P0012
KILE 151503Z AUTO 36015KT 3SM -RA BR OVC008 05/04 A3022 RMK AO2 CIG 005V011 P0003
KILE 151456Z AUTO 01015G21KT 1 1/4SM -RA BR OVC008 05/04 A3021 RMK AO2 CIG 006V011 SLP249 P0022 60028 T00500044 50018
KILE 151452Z AUTO 35014G22KT 1 3/4SM RA BR OVC010 04/03 A3022 RMK AO2 CIG 006V011 P0020
KILE 151356Z AUTO 33009KT 10SM -RA BKN010 BKN014 OVC029 A3022 RMK AO2 CIG 008V013 PRESRR SLPNO P0004 FZRANO $
KILE 151256Z AUTO 34010G18KT 7SM RA OVC010 05/04 A3019 RMK AO2 LTG DSNT NW RAB40 SLP240 P0002 T00500039
KILE 151156Z AUTO 35015G21KT 10SM OVC012 A3015 RMK AO2 PK WND 35030/1101 LTG DSNT W RAE1059UPB1059E07 SLPNO P0000 60000 7//// 53017 FZRANO $
KILE 151056Z AUTO 35018G28KT 7SM -RA BKN010 OVC013 A3010 RMK AO2 PK WND 35028/1056 RAB50 CIG 009V013 SLPNO P0000 FZRANO $
KILE 151036Z AUTO 35015G24KT 10SM FEW007 OVC013 A3012 RMK AO2 FZRANO $
KILE 150956Z AUTO 35017G26KT 10SM OVC009 A3010 RMK AO2 PK WND 36026/0947 RAE32 CIG 005V010 SLPNO P0000 FZRANO $
KILE 150856Z AUTO 35014G22KT 9SM -RA OVC007 08/07 A3010 RMK AO2 UPB34E42 CIG 006V010 SLP205 P0000 60000 T00830072 50019
KILE 150756Z AUTO 35011G22KT 10SM -RA OVC009 A3010 RMK AO2 LTG DSNT W RAB19 SLPNO P0000 FZRANO
KILE 150656Z AUTO 34016G23KT 10SM OVC009 A3007 RMK AO2 PK WND 01027/0617 RAE02UPB02E20 SLPNO P0000 FZRANO $
KILE 150556Z AUTO 35016G23KT 10SM -RA OVC007 A3004 RMK AO2 SLPNO 6//// 10283 20128 403220128 51032 FZRANO $
KILE 150456Z AUTO 35016G22KT 10SM -RA OVC007 14/13 A3002 RMK AO2 LTG DSNT N AND NW SLP177 T01440133 PNO $
KILE 150440Z AUTO 35017G22KT 10SM -RA BKN007 OVC011 16/14 A3001 RMK AO2 LTG DSNT N AND NW PNO $
KILE 150422Z AUTO 33014G19KT 10SM -RA FEW007 BKN011 OVC024 17/16 A3001 RMK AO2 LTG DSNT N AND NW PNO $
KILE 150356Z AUTO 35011G21KT 10SM -RA OVC024 19/17 A2999 RMK AO2 WSHFT 0245 LTG DSNT NW RAB29 SLP165 P0000 T01890172
KILE 150327Z AUTO 36017G22KT 10SM BKN024 19/17 A2997 RMK AO2 WSHFT 0245 LTG DSNT NW
KILE 150310Z AUTO 34019G25KT 10SM SCT026 20/18 A2995 RMK AO2 WSHFT 0245 LTG DSNT W AND NW
KILE 150256Z AUTO 34012G23KT 10SM FEW040 22/18 A2995 RMK AO2 PRESRR SLP150 T02220183 53040
KILE 150156Z AUTO 16007KT 10SM FEW049 26/22 A2989 RMK AO2 SLP128 T02610222